sensor_id;sensor_type;location;lat;lon;timestamp;P1;durP1;ratioP1;P2;durP2;ratioP2
76228;SDS011;65021;53.174;18.160;2023-01-16T00:01:34;2.90;;;1.00;;
76228;SDS011;65021;53.174;18.160;2023-01-16T00:04:01;4.20;;;1.10;;
76228;SDS011;65021;53.174;18.160;2023-01-16T00:06:28;5.60;;;1.40;;
76228;SDS011;65021;53.174;18.160;2023-01-16T00:08:54;4.20;;;1.30;;
76228;SDS011;65021;53.174;18.160;2023-01-16T00:11:24;2.80;;;1.10;;
76228;SDS011;65021;53.174;18.160;2023-01-16T00:13:51;2.70;;;0.60;;
76228;SDS011;65021;53.174;18.160;2023-01-16T00:16:19;2.30;;;0.70;;
76228;SDS011;65021;53.174;18.160;2023-01-16T00:18:47;2.40;;;0.80;;
76228;SDS011;65021;53.174;18.160;2023-01-16T00:21:15;4.40;;;1.00;;
76228;SDS011;65021;53.174;18.160;2023-01-16T00:23:41;5.80;;;1.00;;
76228;SDS011;65021;53.174;18.160;2023-01-16T00:26:08;3.30;;;0.90;;
76228;SDS011;65021;53.174;18.160;2023-01-16T00:28:38;3.40;;;1.10;;
76228;SDS011;65021;53.174;18.160;2023-01-16T00:31:05;3.30;;;0.90;;
76228;SDS011;65021;53.174;18.160;2023-01-16T00:33:33;4.00;;;1.10;;
76228;SDS011;65021;53.174;18.160;2023-01-16T00:36:00;4.30;;;1.10;;
76228;SDS011;65021;53.174;18.160;2023-01-16T00:38:27;2.90;;;0.80;;
76228;SDS011;65021;53.174;18.160;2023-01-16T00:40:54;3.60;;;1.10;;
76228;SDS011;65021;53.174;18.160;2023-01-16T00:43:21;3.70;;;0.90;;
76228;SDS011;65021;53.174;18.160;2023-01-16T00:45:48;4.20;;;1.30;;
76228;SDS011;65021;53.174;18.160;2023-01-16T00:48:15;3.10;;;1.00;;
76228;SDS011;65021;53.174;18.160;2023-01-16T00:50:42;5.30;;;1.10;;
76228;SDS011;65021;53.174;18.160;2023-01-16T00:53:08;6.70;;;1.20;;
76228;SDS011;65021;53.174;18.160;2023-01-16T00:55:35;2.80;;;0.70;;
76228;SDS011;65021;53.174;18.160;2023-01-16T00:58:03;3.40;;;1.10;;
76228;SDS011;65021;53.174;18.160;2023-01-16T01:00:30;2.30;;;0.70;;
76228;SDS011;65021;53.174;18.160;2023-01-16T01:02:57;3.90;;;1.00;;
76228;SDS011;65021;53.174;18.160;2023-01-16T01:05:24;3.60;;;1.10;;
76228;SDS011;65021;53.174;18.160;2023-01-16T01:07:53;5.60;;;1.30;;
76228;SDS011;65021;53.174;18.160;2023-01-16T01:10:20;6.30;;;1.40;;
76228;SDS011;65021;53.174;18.160;2023-01-16T01:12:47;6.00;;;1.70;;
76228;SDS011;65021;53.174;18.160;2023-01-16T01:15:14;4.30;;;1.10;;
76228;SDS011;65021;53.174;18.160;2023-01-16T01:17:41;3.50;;;0.90;;
76228;SDS011;65021;53.174;18.160;2023-01-16T01:20:07;2.00;;;0.60;;
76228;SDS011;65021;53.174;18.160;2023-01-16T01:22:35;3.00;;;0.70;;
76228;SDS011;65021;53.174;18.160;2023-01-16T01:25:01;2.40;;;0.70;;
76228;SDS011;65021;53.174;18.160;2023-01-16T01:27:28;2.60;;;0.70;;
76228;SDS011;65021;53.174;18.160;2023-01-16T01:29:54;4.20;;;0.90;;
76228;SDS011;65021;53.174;18.160;2023-01-16T01:32:24;4.60;;;1.10;;
76228;SDS011;65021;53.174;18.160;2023-01-16T01:34:50;2.30;;;0.60;;
76228;SDS011;65021;53.174;18.160;2023-01-16T01:37:17;5.30;;;1.00;;
76228;SDS011;65021;53.174;18.160;2023-01-16T01:39:44;5.30;;;1.00;;
76228;SDS011;65021;53.174;18.160;2023-01-16T01:42:10;3.50;;;1.30;;
76228;SDS011;65021;53.174;18.160;2023-01-16T01:44:57;2.80;;;1.10;;
76228;SDS011;65021;53.174;18.160;2023-01-16T01:47:34;3.90;;;0.90;;
76228;SDS011;65021;53.174;18.160;2023-01-16T01:50:09;2.30;;;0.80;;
76228;SDS011;65021;53.174;18.160;2023-01-16T01:52:42;4.60;;;0.90;;
76228;SDS011;65021;53.174;18.160;2023-01-16T01:55:09;5.10;;;1.10;;
76228;SDS011;65021;53.174;18.160;2023-01-16T01:57:45;4.60;;;1.20;;
76228;SDS011;65021;53.174;18.160;2023-01-16T02:00:21;2.90;;;1.10;;
76228;SDS011;65021;53.174;18.160;2023-01-16T02:05:36;5.50;;;1.20;;
76228;SDS011;65021;53.174;18.160;2023-01-16T02:08:06;4.30;;;1.50;;
76228;SDS011;65021;53.174;18.160;2023-01-16T02:10:38;3.20;;;1.10;;
76228;SDS011;65021;53.174;18.160;2023-01-16T02:13:07;2.10;;;0.80;;
76228;SDS011;65021;53.174;18.160;2023-01-16T02:15:34;2.30;;;0.90;;
76228;SDS011;65021;53.174;18.160;2023-01-16T02:18:02;2.10;;;0.60;;
76228;SDS011;65021;53.174;18.160;2023-01-16T02:21:02;3.40;;;0.90;;
76228;SDS011;65021;53.174;18.160;2023-01-16T02:29:51;1.80;;;0.70;;
76228;SDS011;65021;53.174;18.160;2023-01-16T02:35:27;3.20;;;0.80;;
76228;SDS011;65021;53.174;18.160;2023-01-16T02:38:13;2.90;;;0.90;;
76228;SDS011;65021;53.174;18.160;2023-01-16T02:40:52;3.00;;;0.90;;
76228;SDS011;65021;53.174;18.160;2023-01-16T02:43:59;3.30;;;0.90;;
76228;SDS011;65021;53.174;18.160;2023-01-16T02:46:55;2.50;;;1.00;;
76228;SDS011;65021;53.174;18.160;2023-01-16T02:49:26;3.40;;;1.10;;
76228;SDS011;65021;53.174;18.160;2023-01-16T02:52:15;4.00;;;0.90;;
76228;SDS011;65021;53.174;18.160;2023-01-16T02:54:59;2.60;;;0.80;;
76228;SDS011;65021;53.174;18.160;2023-01-16T02:57:32;2.30;;;0.80;;
76228;SDS011;65021;53.174;18.160;2023-01-16T03:00:03;3.80;;;1.10;;
76228;SDS011;65021;53.174;18.160;2023-01-16T03:02:32;3.60;;;0.90;;
76228;SDS011;65021;53.174;18.160;2023-01-16T03:04:58;2.70;;;0.80;;
76228;SDS011;65021;53.174;18.160;2023-01-16T03:18:35;3.00;;;0.90;;
76228;SDS011;65021;53.174;18.160;2023-01-16T03:21:13;3.60;;;0.80;;
76228;SDS011;65021;53.174;18.160;2023-01-16T03:23:52;3.90;;;1.00;;
76228;SDS011;65021;53.174;18.160;2023-01-16T03:26:37;4.70;;;1.00;;
76228;SDS011;65021;53.174;18.160;2023-01-16T03:31:56;2.30;;;0.70;;
76228;SDS011;65021;53.174;18.160;2023-01-16T03:37:33;5.20;;;1.30;;
76228;SDS011;65021;53.174;18.160;2023-01-16T03:40:08;3.90;;;1.30;;
76228;SDS011;65021;53.174;18.160;2023-01-16T03:42:39;3.30;;;1.00;;
76228;SDS011;65021;53.174;18.160;2023-01-16T03:45:25;2.80;;;0.70;;
76228;SDS011;65021;53.174;18.160;2023-01-16T03:48:04;3.30;;;0.70;;
76228;SDS011;65021;53.174;18.160;2023-01-16T03:50:36;4.40;;;0.80;;
76228;SDS011;65021;53.174;18.160;2023-01-16T03:53:08;2.90;;;0.80;;
76228;SDS011;65021;53.174;18.160;2023-01-16T03:55:59;2.80;;;0.80;;
76228;SDS011;65021;53.174;18.160;2023-01-16T03:58:37;2.00;;;0.50;;
76228;SDS011;65021;53.174;18.160;2023-01-16T04:01:14;2.50;;;1.00;;
76228;SDS011;65021;53.174;18.160;2023-01-16T04:03:47;3.30;;;0.90;;
76228;SDS011;65021;53.174;18.160;2023-01-16T04:06:53;5.10;;;1.20;;
76228;SDS011;65021;53.174;18.160;2023-01-16T04:09:29;4.10;;;1.10;;
76228;SDS011;65021;53.174;18.160;2023-01-16T04:12:06;2.90;;;1.00;;
76228;SDS011;65021;53.174;18.160;2023-01-16T04:14:34;3.40;;;1.10;;
76228;SDS011;65021;53.174;18.160;2023-01-16T04:17:02;2.90;;;1.00;;
76228;SDS011;65021;53.174;18.160;2023-01-16T04:19:30;4.30;;;1.40;;
76228;SDS011;65021;53.174;18.160;2023-01-16T04:21:59;3.70;;;0.90;;
76228;SDS011;65021;53.174;18.160;2023-01-16T04:24:31;3.60;;;1.00;;
76228;SDS011;65021;53.174;18.160;2023-01-16T04:26:58;1.90;;;0.60;;
76228;SDS011;65021;53.174;18.160;2023-01-16T04:29:25;1.70;;;0.50;;
76228;SDS011;65021;53.174;18.160;2023-01-16T04:31:52;3.50;;;1.10;;
76228;SDS011;65021;53.174;18.160;2023-01-16T04:34:18;3.70;;;1.20;;
76228;SDS011;65021;53.174;18.160;2023-01-16T04:36:45;4.40;;;1.40;;
76228;SDS011;65021;53.174;18.160;2023-01-16T04:39:11;4.10;;;1.40;;
76228;SDS011;65021;53.174;18.160;2023-01-16T04:41:38;4.20;;;1.40;;
76228;SDS011;65021;53.174;18.160;2023-01-16T04:44:07;3.30;;;1.40;;
76228;SDS011;65021;53.174;18.160;2023-01-16T04:46:35;4.50;;;1.00;;
76228;SDS011;65021;53.174;18.160;2023-01-16T04:49:04;3.70;;;1.40;;
76228;SDS011;65021;53.174;18.160;2023-01-16T04:51:31;3.50;;;1.00;;
76228;SDS011;65021;53.174;18.160;2023-01-16T04:53:58;3.60;;;1.00;;
76228;SDS011;65021;53.174;18.160;2023-01-16T04:56:25;6.50;;;1.60;;
76228;SDS011;65021;53.174;18.160;2023-01-16T04:58:52;4.30;;;1.20;;
76228;SDS011;65021;53.174;18.160;2023-01-16T05:01:19;4.70;;;1.20;;
76228;SDS011;65021;53.174;18.160;2023-01-16T05:03:46;3.20;;;1.00;;
76228;SDS011;65021;53.174;18.160;2023-01-16T05:06:13;5.70;;;1.30;;
76228;SDS011;65021;53.174;18.160;2023-01-16T05:08:40;4.00;;;1.30;;
76228;SDS011;65021;53.174;18.160;2023-01-16T05:11:06;2.30;;;0.80;;
76228;SDS011;65021;53.174;18.160;2023-01-16T05:13:33;3.70;;;1.20;;
76228;SDS011;65021;53.174;18.160;2023-01-16T05:16:00;4.30;;;1.50;;
76228;SDS011;65021;53.174;18.160;2023-01-16T05:18:27;4.80;;;1.50;;
76228;SDS011;65021;53.174;18.160;2023-01-16T05:20:53;6.80;;;1.60;;
76228;SDS011;65021;53.174;18.160;2023-01-16T05:23:20;4.60;;;1.10;;
76228;SDS011;65021;53.174;18.160;2023-01-16T05:25:47;3.70;;;1.10;;
76228;SDS011;65021;53.174;18.160;2023-01-16T05:28:14;6.10;;;1.50;;
76228;SDS011;65021;53.174;18.160;2023-01-16T05:30:41;3.60;;;1.20;;
76228;SDS011;65021;53.174;18.160;2023-01-16T05:33:08;4.20;;;1.40;;
76228;SDS011;65021;53.174;18.160;2023-01-16T05:35:34;3.90;;;1.40;;
76228;SDS011;65021;53.174;18.160;2023-01-16T05:38:01;6.50;;;1.80;;
76228;SDS011;65021;53.174;18.160;2023-01-16T05:40:30;6.30;;;1.70;;
76228;SDS011;65021;53.174;18.160;2023-01-16T05:42:57;4.00;;;1.40;;
76228;SDS011;65021;53.174;18.160;2023-01-16T05:45:24;4.80;;;1.50;;
76228;SDS011;65021;53.174;18.160;2023-01-16T05:47:50;4.70;;;1.70;;
76228;SDS011;65021;53.174;18.160;2023-01-16T05:50:17;5.10;;;1.70;;
76228;SDS011;65021;53.174;18.160;2023-01-16T05:52:44;5.40;;;1.70;;
76228;SDS011;65021;53.174;18.160;2023-01-16T05:55:11;6.20;;;1.60;;
76228;SDS011;65021;53.174;18.160;2023-01-16T05:57:37;3.50;;;1.10;;
76228;SDS011;65021;53.174;18.160;2023-01-16T06:00:04;4.50;;;1.50;;
76228;SDS011;65021;53.174;18.160;2023-01-16T06:02:32;8.70;;;1.80;;
76228;SDS011;65021;53.174;18.160;2023-01-16T06:04:59;6.10;;;2.10;;
76228;SDS011;65021;53.174;18.160;2023-01-16T06:07:26;6.10;;;1.70;;
76228;SDS011;65021;53.174;18.160;2023-01-16T06:09:52;8.00;;;2.20;;
76228;SDS011;65021;53.174;18.160;2023-01-16T06:12:19;4.90;;;1.90;;
76228;SDS011;65021;53.174;18.160;2023-01-16T06:14:46;3.90;;;1.60;;
76228;SDS011;65021;53.174;18.160;2023-01-16T06:17:13;5.60;;;1.70;;
76228;SDS011;65021;53.174;18.160;2023-01-16T06:19:40;5.20;;;1.80;;
76228;SDS011;65021;53.174;18.160;2023-01-16T06:22:08;5.60;;;1.60;;
76228;SDS011;65021;53.174;18.160;2023-01-16T06:24:34;4.80;;;1.50;;
76228;SDS011;65021;53.174;18.160;2023-01-16T06:27:01;3.90;;;1.50;;
76228;SDS011;65021;53.174;18.160;2023-01-16T06:29:28;4.50;;;1.40;;
76228;SDS011;65021;53.174;18.160;2023-01-16T06:31:55;8.30;;;2.00;;
76228;SDS011;65021;53.174;18.160;2023-01-16T06:34:21;7.40;;;2.30;;
76228;SDS011;65021;53.174;18.160;2023-01-16T06:36:52;6.70;;;1.70;;
76228;SDS011;65021;53.174;18.160;2023-01-16T06:39:18;8.00;;;2.10;;
76228;SDS011;65021;53.174;18.160;2023-01-16T06:41:45;4.70;;;1.70;;
76228;SDS011;65021;53.174;18.160;2023-01-16T06:44:12;7.80;;;2.00;;
76228;SDS011;65021;53.174;18.160;2023-01-16T06:46:41;5.10;;;1.80;;
76228;SDS011;65021;53.174;18.160;2023-01-16T06:49:08;4.80;;;1.90;;
76228;SDS011;65021;53.174;18.160;2023-01-16T06:51:35;6.40;;;1.90;;
76228;SDS011;65021;53.174;18.160;2023-01-16T06:54:02;4.90;;;1.50;;
76228;SDS011;65021;53.174;18.160;2023-01-16T06:56:29;4.60;;;1.60;;
76228;SDS011;65021;53.174;18.160;2023-01-16T06:58:56;4.50;;;1.20;;
76228;SDS011;65021;53.174;18.160;2023-01-16T07:01:22;5.40;;;1.70;;
76228;SDS011;65021;53.174;18.160;2023-01-16T07:03:49;7.10;;;2.00;;
76228;SDS011;65021;53.174;18.160;2023-01-16T07:06:15;5.90;;;1.80;;
76228;SDS011;65021;53.174;18.160;2023-01-16T07:08:42;7.00;;;2.40;;
76228;SDS011;65021;53.174;18.160;2023-01-16T07:11:11;6.30;;;2.50;;
76228;SDS011;65021;53.174;18.160;2023-01-16T07:13:38;6.80;;;1.90;;
76228;SDS011;65021;53.174;18.160;2023-01-16T07:16:04;8.40;;;2.80;;
76228;SDS011;65021;53.174;18.160;2023-01-16T07:18:50;6.00;;;2.50;;
76228;SDS011;65021;53.174;18.160;2023-01-16T07:21:35;6.00;;;1.90;;
76228;SDS011;65021;53.174;18.160;2023-01-16T07:24:24;6.60;;;2.50;;
76228;SDS011;65021;53.174;18.160;2023-01-16T07:26:56;8.70;;;2.40;;
76228;SDS011;65021;53.174;18.160;2023-01-16T07:29:26;8.10;;;3.50;;
76228;SDS011;65021;53.174;18.160;2023-01-16T07:31:56;9.00;;;3.40;;
76228;SDS011;65021;53.174;18.160;2023-01-16T07:34:24;5.50;;;3.00;;
76228;SDS011;65021;53.174;18.160;2023-01-16T07:36:51;5.70;;;2.40;;
76228;SDS011;65021;53.174;18.160;2023-01-16T07:39:27;5.70;;;2.20;;
76228;SDS011;65021;53.174;18.160;2023-01-16T07:41:53;6.60;;;2.30;;
76228;SDS011;65021;53.174;18.160;2023-01-16T07:44:20;7.50;;;2.90;;
76228;SDS011;65021;53.174;18.160;2023-01-16T07:46:47;6.70;;;2.40;;
76228;SDS011;65021;53.174;18.160;2023-01-16T07:49:13;5.50;;;2.00;;
76228;SDS011;65021;53.174;18.160;2023-01-16T07:51:40;5.90;;;1.70;;
76228;SDS011;65021;53.174;18.160;2023-01-16T07:54:07;5.20;;;2.00;;
76228;SDS011;65021;53.174;18.160;2023-01-16T07:56:35;5.00;;;2.50;;
76228;SDS011;65021;53.174;18.160;2023-01-16T07:59:01;7.00;;;2.70;;
76228;SDS011;65021;53.174;18.160;2023-01-16T08:01:28;5.30;;;1.70;;
76228;SDS011;65021;53.174;18.160;2023-01-16T08:03:55;4.60;;;2.40;;
76228;SDS011;65021;53.174;18.160;2023-01-16T08:06:22;7.20;;;2.60;;
76228;SDS011;65021;53.174;18.160;2023-01-16T08:08:48;8.00;;;2.60;;
76228;SDS011;65021;53.174;18.160;2023-01-16T08:11:15;6.80;;;2.50;;
76228;SDS011;65021;53.174;18.160;2023-01-16T08:14:00;6.20;;;2.30;;
76228;SDS011;65021;53.174;18.160;2023-01-16T08:16:27;9.30;;;2.40;;
76228;SDS011;65021;53.174;18.160;2023-01-16T08:18:54;10.90;;;2.50;;
76228;SDS011;65021;53.174;18.160;2023-01-16T08:21:21;4.70;;;2.00;;
76228;SDS011;65021;53.174;18.160;2023-01-16T08:23:47;6.50;;;2.40;;
76228;SDS011;65021;53.174;18.160;2023-01-16T08:26:15;9.00;;;2.40;;
76228;SDS011;65021;53.174;18.160;2023-01-16T08:28:42;9.90;;;2.60;;
76228;SDS011;65021;53.174;18.160;2023-01-16T08:31:09;11.20;;;3.10;;
76228;SDS011;65021;53.174;18.160;2023-01-16T08:33:40;11.30;;;3.40;;
76228;SDS011;65021;53.174;18.160;2023-01-16T08:36:09;9.70;;;3.70;;
76228;SDS011;65021;53.174;18.160;2023-01-16T08:38:37;12.00;;;3.90;;
76228;SDS011;65021;53.174;18.160;2023-01-16T08:41:04;9.50;;;4.50;;
76228;SDS011;65021;53.174;18.160;2023-01-16T08:43:30;11.10;;;4.20;;
76228;SDS011;65021;53.174;18.160;2023-01-16T08:46:16;11.00;;;4.60;;
76228;SDS011;65021;53.174;18.160;2023-01-16T08:49:04;8.20;;;2.80;;
76228;SDS011;65021;53.174;18.160;2023-01-16T08:51:55;9.40;;;4.40;;
76228;SDS011;65021;53.174;18.160;2023-01-16T08:54:21;7.80;;;3.60;;
76228;SDS011;65021;53.174;18.160;2023-01-16T08:56:49;10.50;;;4.20;;
76228;SDS011;65021;53.174;18.160;2023-01-16T08:59:15;10.10;;;3.40;;
76228;SDS011;65021;53.174;18.160;2023-01-16T09:01:52;10.70;;;4.00;;
76228;SDS011;65021;53.174;18.160;2023-01-16T09:04:18;8.90;;;3.40;;
76228;SDS011;65021;53.174;18.160;2023-01-16T09:06:45;10.10;;;4.00;;
76228;SDS011;65021;53.174;18.160;2023-01-16T09:09:12;9.70;;;3.20;;
76228;SDS011;65021;53.174;18.160;2023-01-16T09:11:38;9.30;;;3.60;;
76228;SDS011;65021;53.174;18.160;2023-01-16T09:14:23;6.60;;;2.90;;
76228;SDS011;65021;53.174;18.160;2023-01-16T09:16:50;9.40;;;3.40;;
76228;SDS011;65021;53.174;18.160;2023-01-16T09:19:16;9.80;;;3.20;;
76228;SDS011;65021;53.174;18.160;2023-01-16T09:21:43;11.20;;;3.30;;
76228;SDS011;65021;53.174;18.160;2023-01-16T09:24:10;10.10;;;3.70;;
76228;SDS011;65021;53.174;18.160;2023-01-16T09:26:36;12.00;;;4.50;;
76228;SDS011;65021;53.174;18.160;2023-01-16T09:29:03;11.70;;;4.60;;
76228;SDS011;65021;53.174;18.160;2023-01-16T09:31:30;8.40;;;3.90;;
76228;SDS011;65021;53.174;18.160;2023-01-16T09:33:56;6.60;;;3.00;;
76228;SDS011;65021;53.174;18.160;2023-01-16T09:36:23;11.60;;;3.70;;
76228;SDS011;65021;53.174;18.160;2023-01-16T09:38:50;5.90;;;2.40;;
76228;SDS011;65021;53.174;18.160;2023-01-16T09:41:18;7.10;;;1.50;;
76228;SDS011;65021;53.174;18.160;2023-01-16T09:44:04;6.10;;;2.10;;
76228;SDS011;65021;53.174;18.160;2023-01-16T09:46:45;5.90;;;2.70;;
76228;SDS011;65021;53.174;18.160;2023-01-16T09:52:19;9.40;;;2.90;;
76228;SDS011;65021;53.174;18.160;2023-01-16T09:55:15;6.10;;;2.60;;
76228;SDS011;65021;53.174;18.160;2023-01-16T09:58:07;7.10;;;2.90;;
76228;SDS011;65021;53.174;18.160;2023-01-16T10:00:59;5.40;;;1.80;;
76228;SDS011;65021;53.174;18.160;2023-01-16T10:03:26;6.00;;;2.40;;
76228;SDS011;65021;53.174;18.160;2023-01-16T10:11:09;8.80;;;3.40;;
76228;SDS011;65021;53.174;18.160;2023-01-16T10:13:47;6.50;;;2.80;;
76228;SDS011;65021;53.174;18.160;2023-01-16T10:18:59;10.10;;;3.70;;
76228;SDS011;65021;53.174;18.160;2023-01-16T10:24:32;5.90;;;2.30;;
76228;SDS011;65021;53.174;18.160;2023-01-16T10:27:37;8.30;;;3.80;;
76228;SDS011;65021;53.174;18.160;2023-01-16T10:30:10;9.60;;;3.70;;
76228;SDS011;65021;53.174;18.160;2023-01-16T10:35:40;6.40;;;2.00;;
76228;SDS011;65021;53.174;18.160;2023-01-16T10:38:30;5.70;;;2.10;;
76228;SDS011;65021;53.174;18.160;2023-01-16T10:47:14;6.10;;;2.50;;
76228;SDS011;65021;53.174;18.160;2023-01-16T10:50:01;6.50;;;2.30;;
76228;SDS011;65021;53.174;18.160;2023-01-16T10:52:29;8.00;;;2.80;;
76228;SDS011;65021;53.174;18.160;2023-01-16T10:54:57;8.60;;;2.80;;
76228;SDS011;65021;53.174;18.160;2023-01-16T10:57:25;8.50;;;2.90;;
76228;SDS011;65021;53.174;18.160;2023-01-16T10:59:54;7.60;;;2.80;;
76228;SDS011;65021;53.174;18.160;2023-01-16T11:02:42;4.80;;;1.90;;
76228;SDS011;65021;53.174;18.160;2023-01-16T11:08:11;12.30;;;3.60;;
76228;SDS011;65021;53.174;18.160;2023-01-16T11:10:46;6.90;;;2.90;;
76228;SDS011;65021;53.174;18.160;2023-01-16T11:13:14;4.50;;;1.80;;
76228;SDS011;65021;53.174;18.160;2023-01-16T11:18:58;7.00;;;3.10;;
76228;SDS011;65021;53.174;18.160;2023-01-16T11:21:32;7.90;;;2.90;;
76228;SDS011;65021;53.174;18.160;2023-01-16T11:24:03;7.50;;;2.60;;
76228;SDS011;65021;53.174;18.160;2023-01-16T11:26:37;6.60;;;2.60;;
76228;SDS011;65021;53.174;18.160;2023-01-16T11:29:04;9.70;;;3.30;;
76228;SDS011;65021;53.174;18.160;2023-01-16T11:31:30;8.60;;;2.60;;
76228;SDS011;65021;53.174;18.160;2023-01-16T11:33:58;9.30;;;3.30;;
76228;SDS011;65021;53.174;18.160;2023-01-16T11:36:32;6.00;;;2.20;;
76228;SDS011;65021;53.174;18.160;2023-01-16T11:39:01;5.00;;;1.60;;
76228;SDS011;65021;53.174;18.160;2023-01-16T11:41:29;6.90;;;3.10;;
76228;SDS011;65021;53.174;18.160;2023-01-16T11:47:15;7.10;;;2.70;;
76228;SDS011;65021;53.174;18.160;2023-01-16T11:49:47;6.60;;;2.40;;
76228;SDS011;65021;53.174;18.160;2023-01-16T11:52:16;6.00;;;2.50;;
76228;SDS011;65021;53.174;18.160;2023-01-16T11:54:56;8.40;;;2.20;;
76228;SDS011;65021;53.174;18.160;2023-01-16T12:14:29;8.00;;;2.70;;
76228;SDS011;65021;53.174;18.160;2023-01-16T12:28:44;16.90;;;5.50;;
76228;SDS011;65021;53.174;18.160;2023-01-16T12:37:18;6.80;;;2.40;;
76228;SDS011;65021;53.174;18.160;2023-01-16T12:42:23;8.80;;;2.90;;
76228;SDS011;65021;53.174;18.160;2023-01-16T12:45:17;7.60;;;3.10;;
76228;SDS011;65021;53.174;18.160;2023-01-16T12:58:47;14.30;;;4.40;;
76228;SDS011;65021;53.174;18.160;2023-01-16T13:01:25;17.30;;;6.40;;
76228;SDS011;65021;53.174;18.160;2023-01-16T13:06:47;12.30;;;4.60;;
76228;SDS011;65021;53.174;18.160;2023-01-16T13:12:43;9.50;;;3.60;;
76228;SDS011;65021;53.174;18.160;2023-01-16T13:15:34;9.40;;;4.20;;
76228;SDS011;65021;53.174;18.160;2023-01-16T13:18:11;7.70;;;2.40;;
76228;SDS011;65021;53.174;18.160;2023-01-16T13:20:49;9.70;;;3.70;;
76228;SDS011;65021;53.174;18.160;2023-01-16T13:25:59;7.10;;;3.00;;
76228;SDS011;65021;53.174;18.160;2023-01-16T13:31:23;5.70;;;2.10;;
76228;SDS011;65021;53.174;18.160;2023-01-16T13:33:53;9.00;;;2.70;;
76228;SDS011;65021;53.174;18.160;2023-01-16T13:39:46;9.80;;;2.70;;
76228;SDS011;65021;53.174;18.160;2023-01-16T13:42:07;6.90;;;2.80;;
76228;SDS011;65021;53.174;18.160;2023-01-16T13:44:36;8.60;;;3.40;;
76228;SDS011;65021;53.174;18.160;2023-01-16T13:47:26;9.10;;;3.20;;
76228;SDS011;65021;53.174;18.160;2023-01-16T13:50:30;6.00;;;2.90;;
76228;SDS011;65021;53.174;18.160;2023-01-16T13:52:53;7.70;;;2.60;;
76228;SDS011;65021;53.174;18.160;2023-01-16T13:55:34;8.00;;;2.60;;
76228;SDS011;65021;53.174;18.160;2023-01-16T13:58:13;10.20;;;3.90;;
76228;SDS011;65021;53.174;18.160;2023-01-16T14:00:43;8.00;;;3.10;;
76228;SDS011;65021;53.174;18.160;2023-01-16T14:03:27;6.70;;;2.60;;
76228;SDS011;65021;53.174;18.160;2023-01-16T14:11:37;8.20;;;3.10;;
76228;SDS011;65021;53.174;18.160;2023-01-16T14:17:26;13.40;;;5.60;;
76228;SDS011;65021;53.174;18.160;2023-01-16T14:19:57;11.70;;;4.30;;
76228;SDS011;65021;53.174;18.160;2023-01-16T14:22:26;12.20;;;4.40;;
76228;SDS011;65021;53.174;18.160;2023-01-16T14:25:13;13.20;;;4.60;;
76228;SDS011;65021;53.174;18.160;2023-01-16T14:27:47;16.70;;;5.20;;
76228;SDS011;65021;53.174;18.160;2023-01-16T14:30:17;16.20;;;5.00;;
76228;SDS011;65021;53.174;18.160;2023-01-16T14:32:47;15.90;;;4.40;;
76228;SDS011;65021;53.174;18.160;2023-01-16T14:35:23;13.80;;;5.20;;
76228;SDS011;65021;53.174;18.160;2023-01-16T14:37:56;12.90;;;3.10;;
76228;SDS011;65021;53.174;18.160;2023-01-16T14:40:27;15.60;;;5.20;;
76228;SDS011;65021;53.174;18.160;2023-01-16T14:43:17;12.50;;;4.80;;
76228;SDS011;65021;53.174;18.160;2023-01-16T14:46:13;12.80;;;4.20;;
76228;SDS011;65021;53.174;18.160;2023-01-16T14:55:25;12.20;;;3.40;;
76228;SDS011;65021;53.174;18.160;2023-01-16T15:01:00;41.00;;;12.20;;
76228;SDS011;65021;53.174;18.160;2023-01-16T15:03:59;36.50;;;11.80;;
76228;SDS011;65021;53.174;18.160;2023-01-16T15:06:31;32.40;;;10.90;;
76228;SDS011;65021;53.174;18.160;2023-01-16T15:09:01;19.70;;;7.20;;
76228;SDS011;65021;53.174;18.160;2023-01-16T15:11:30;28.30;;;6.40;;
76228;SDS011;65021;53.174;18.160;2023-01-16T15:14:16;41.50;;;10.90;;
76228;SDS011;65021;53.174;18.160;2023-01-16T15:23:00;29.70;;;10.30;;
76228;SDS011;65021;53.174;18.160;2023-01-16T15:25:43;39.00;;;11.90;;
76228;SDS011;65021;53.174;18.160;2023-01-16T15:31:05;10.30;;;3.20;;
76228;SDS011;65021;53.174;18.160;2023-01-16T15:33:35;15.10;;;4.70;;
76228;SDS011;65021;53.174;18.160;2023-01-16T15:36:23;8.80;;;3.60;;
76228;SDS011;65021;53.174;18.160;2023-01-16T15:38:56;8.70;;;3.70;;
76228;SDS011;65021;53.174;18.160;2023-01-16T15:41:54;7.00;;;2.20;;
76228;SDS011;65021;53.174;18.160;2023-01-16T15:44:47;12.20;;;4.10;;
76228;SDS011;65021;53.174;18.160;2023-01-16T15:53:07;6.90;;;2.40;;
76228;SDS011;65021;53.174;18.160;2023-01-16T15:55:38;10.40;;;3.80;;
76228;SDS011;65021;53.174;18.160;2023-01-16T15:58:14;9.80;;;3.40;;
76228;SDS011;65021;53.174;18.160;2023-01-16T16:01:00;6.40;;;2.80;;
76228;SDS011;65021;53.174;18.160;2023-01-16T16:03:46;9.20;;;3.50;;
76228;SDS011;65021;53.174;18.160;2023-01-16T16:06:16;7.20;;;2.90;;
76228;SDS011;65021;53.174;18.160;2023-01-16T16:08:45;10.40;;;3.60;;
76228;SDS011;65021;53.174;18.160;2023-01-16T16:11:20;7.60;;;2.70;;
76228;SDS011;65021;53.174;18.160;2023-01-16T16:14:24;7.10;;;2.50;;
76228;SDS011;65021;53.174;18.160;2023-01-16T16:31:00;10.20;;;3.70;;
76228;SDS011;65021;53.174;18.160;2023-01-16T16:33:28;9.10;;;3.30;;
76228;SDS011;65021;53.174;18.160;2023-01-16T16:35:58;10.90;;;3.40;;
76228;SDS011;65021;53.174;18.160;2023-01-16T16:38:30;11.50;;;4.80;;
76228;SDS011;65021;53.174;18.160;2023-01-16T16:43:45;11.70;;;4.40;;
76228;SDS011;65021;53.174;18.160;2023-01-16T16:48:54;10.10;;;4.80;;
76228;SDS011;65021;53.174;18.160;2023-01-16T16:51:33;11.10;;;4.00;;
76228;SDS011;65021;53.174;18.160;2023-01-16T16:54:04;8.40;;;3.00;;
76228;SDS011;65021;53.174;18.160;2023-01-16T16:56:58;12.50;;;4.10;;
76228;SDS011;65021;53.174;18.160;2023-01-16T16:59:26;9.30;;;3.70;;
76228;SDS011;65021;53.174;18.160;2023-01-16T17:01:57;14.60;;;5.60;;
76228;SDS011;65021;53.174;18.160;2023-01-16T17:04:30;12.00;;;4.90;;
76228;SDS011;65021;53.174;18.160;2023-01-16T17:06:56;11.80;;;3.90;;
76228;SDS011;65021;53.174;18.160;2023-01-16T17:09:24;16.70;;;5.60;;
76228;SDS011;65021;53.174;18.160;2023-01-16T17:11:52;11.70;;;4.90;;
76228;SDS011;65021;53.174;18.160;2023-01-16T17:14:19;22.40;;;8.30;;
76228;SDS011;65021;53.174;18.160;2023-01-16T17:16:45;17.80;;;7.80;;
76228;SDS011;65021;53.174;18.160;2023-01-16T17:21:48;12.20;;;5.30;;
76228;SDS011;65021;53.174;18.160;2023-01-16T17:24:15;8.80;;;3.00;;
76228;SDS011;65021;53.174;18.160;2023-01-16T17:26:43;10.40;;;2.90;;
76228;SDS011;65021;53.174;18.160;2023-01-16T17:29:10;7.20;;;2.70;;
76228;SDS011;65021;53.174;18.160;2023-01-16T17:31:38;8.80;;;3.70;;
76228;SDS011;65021;53.174;18.160;2023-01-16T17:34:12;13.40;;;4.80;;
76228;SDS011;65021;53.174;18.160;2023-01-16T17:36:42;10.90;;;3.50;;
76228;SDS011;65021;53.174;18.160;2023-01-16T17:39:09;10.70;;;4.90;;
76228;SDS011;65021;53.174;18.160;2023-01-16T17:41:37;10.10;;;3.30;;
76228;SDS011;65021;53.174;18.160;2023-01-16T17:44:13;15.10;;;4.90;;
76228;SDS011;65021;53.174;18.160;2023-01-16T17:47:00;15.90;;;5.80;;
76228;SDS011;65021;53.174;18.160;2023-01-16T17:49:27;16.00;;;7.00;;
76228;SDS011;65021;53.174;18.160;2023-01-16T17:51:54;14.80;;;6.90;;
76228;SDS011;65021;53.174;18.160;2023-01-16T17:54:21;14.60;;;5.50;;
76228;SDS011;65021;53.174;18.160;2023-01-16T17:57:06;17.30;;;6.90;;
76228;SDS011;65021;53.174;18.160;2023-01-16T17:59:33;21.70;;;8.10;;